Time;durP1;ratioP1;P1;durP2;ratioP2;P2;SDS_P1;SDS_P2;PMS_P1;PMS_P2;Temp;Humidity;BMP_temperature;BMP_pressure;BME280_temperature;BME280_humidity;BME280_pressure;Samples;Min_cycle;Max_cycle;Signal;HPM_P1;HPM_P2
2022/11/27 00:01:33;;;;;;;;;;;;;;;18.34;61.93;102110.38;7402726;19;2075;-43
2022/11/27 00:04:01;;;;;;;;;;;;;;;18.33;61.67;102134.59;7405344;19;1770;-43
2022/11/27 00:06:30;;;;;;;;;;;;;;;18.34;61.49;102115.72;7404260;19;1754;-43
2022/11/27 00:08:59;;;;;;;;;;;;;;;18.35;61.94;102124.63;7403893;19;1853;-44
2022/11/27 00:11:28;;;;;;;;;;;;;;;18.33;61.84;102124.72;7404401;19;1831;-44
2022/11/27 00:13:56;;;;;;;;;;;;;;;18.34;61.86;102112.19;7405315;19;970;-43
2022/11/27 00:16:25;;;;;;;;;;;;;;;18.30;61.29;102132.94;7404413;19;1950;-43
2022/11/27 00:18:56;;;;;;;;;;;;;;;18.33;61.28;102123.88;7403865;19;1955;-43
2022/11/27 00:21:25;;;;;;;;;;;;;;;18.31;61.40;102110.59;7401031;19;1713;-44
2022/11/27 00:23:54;;;;;;;;;;;;;;;18.27;61.34;102117.94;7403971;19;1881;-43
2022/11/27 00:26:22;;;;;;;;;;;;;;;18.28;61.46;102132.19;7403244;19;1165;-43
2022/11/27 00:28:51;;;;;;;;;;;;;;;18.26;61.65;102129.63;7404344;19;2056;-43
2022/11/27 00:31:21;;;;;;;;;;;;;;;18.26;61.35;102135.00;7402745;19;1775;-43
2022/11/27 00:33:49;;;;;;;;;;;;;;;18.21;61.26;102126.38;7402935;19;1837;-44
2022/11/27 00:36:20;;;;;;;;;;;;;;;18.19;61.49;102125.59;7402517;19;1926;-43
2022/11/27 00:38:48;;;;;;;;;;;;;;;18.20;61.58;102135.34;7403463;19;1733;-44
2022/11/27 00:41:18;;;;;;;;;;;;;;;18.18;61.75;102144.44;7403831;19;1488;-43
2022/11/27 00:43:46;;;;;;;;;;;;;;;18.20;61.30;102137.16;7402464;19;1861;-43
2022/11/27 00:46:14;;;;;;;;;;;;;;;18.17;61.57;102135.56;7403470;19;1896;-43
2022/11/27 00:48:43;;;;;;;;;;;;;;;18.15;61.58;102142.81;7402858;19;1771;-43
2022/11/27 00:51:12;;;;;;;;;;;;;;;18.12;61.83;102143.00;7401572;19;1932;-44
2022/11/27 00:53:43;;;;;;;;;;;;;;;18.12;61.38;102159.06;7403438;19;1867;-43
2022/11/27 00:56:11;;;;;;;;;;;;;;;18.14;60.81;102148.25;7402050;19;2023;-43
2022/11/27 00:58:40;;;;;;;;;;;;;;;18.16;60.78;102132.97;7402348;19;1731;-43
2022/11/27 01:01:09;;;;;;;;;;;;;;;18.19;60.94;102148.84;7395668;19;2110;-43
2022/11/27 01:03:37;;;;;;;;;;;;;;;18.17;60.58;102150.75;7402192;19;2004;-43
2022/11/27 01:06:06;;;;;;;;;;;;;;;18.18;60.87;102166.72;7399884;19;1878;-44
2022/11/27 01:08:34;;;;;;;;;;;;;;;18.15;60.84;102164.25;7400946;19;1798;-43
2022/11/27 01:11:05;;;;;;;;;;;;;;;18.13;60.86;102150.09;7400275;19;1952;-43
2022/11/27 01:13:35;;;;;;;;;;;;;;;18.11;60.91;102161.88;7401569;19;1676;-43
2022/11/27 01:16:05;;;;;;;;;;;;;;;18.14;60.62;102150.94;7402059;19;1957;-43
2022/11/27 01:18:33;;;;;;;;;;;;;;;18.10;60.69;102160.97;7401485;19;1717;-43
2022/11/27 01:21:02;;;;;;;;;;;;;;;18.13;60.57;102151.91;7402463;19;1897;-43
2022/11/27 01:23:31;;;;;;;;;;;;;;;18.09;60.37;102144.06;7401317;19;1963;-43
2022/11/27 01:26:01;;;;;;;;;;;;;;;18.10;60.42;102166.34;7400478;19;1813;-43
2022/11/27 01:28:32;;;;;;;;;;;;;;;18.08;60.56;102160.22;7401357;19;1587;-43
2022/11/27 01:31:05;;;;;;;;;;;;;;;18.07;60.62;102163.88;7399086;19;2059;-43
2022/11/27 01:33:33;;;;;;;;;;;;;;;18.03;60.69;102136.41;7399833;19;1743;-43
2022/11/27 01:36:03;;;;;;;;;;;;;;;18.05;60.33;102155.06;7402454;19;1036;-43
2022/11/27 01:38:32;;;;;;;;;;;;;;;18.02;60.51;102157.91;7402134;19;1974;-43
2022/11/27 01:41:00;;;;;;;;;;;;;;;18.04;60.50;102166.72;7401947;19;2044;-43
2022/11/27 01:43:43;;;;;;;;;;;;;;;18.02;60.60;102155.25;7400137;19;1860;-43
2022/11/27 01:46:19;;;;;;;;;;;;;;;18.04;60.35;102147.97;7402194;19;1888;-43
2022/11/27 01:48:48;;;;;;;;;;;;;;;18.03;60.33;102167.69;7400617;19;1845;-43
2022/11/27 01:51:16;;;;;;;;;;;;;;;18.04;60.37;102159.53;7399843;19;1858;-43
2022/11/27 01:53:45;;;;;;;;;;;;;;;18.05;60.00;102147.03;7401876;19;1024;-43
2022/11/27 01:56:13;;;;;;;;;;;;;;;18.06;59.92;102157.66;7402348;19;974;-43
2022/11/27 01:58:44;;;;;;;;;;;;;;;18.07;60.11;102158.50;7400676;19;1623;-44
2022/11/27 02:01:12;;;;;;;;;;;;;;;18.11;60.48;102149.34;7399457;19;1772;-43
2022/11/27 02:03:40;;;;;;;;;;;;;;;19.03;58.41;102154.13;7400141;19;1402;-43
2022/11/27 02:06:10;;;;;;;;;;;;;;;19.40;57.96;102146.31;7401161;19;1521;-43
2022/11/27 02:08:39;;;;;;;;;;;;;;;20.26;56.18;102140.31;7409766;19;1027;-43
2022/11/27 02:11:11;;;;;;;;;;;;;;;20.68;55.31;102131.09;7406769;19;1865;-43
2022/11/27 02:13:40;;;;;;;;;;;;;;;20.88;55.15;102143.06;7408350;19;2031;-43
2022/11/27 02:16:17;;;;;;;;;;;;;;;21.01;54.55;102133.97;7407939;19;1589;-43
2022/11/27 02:18:50;;;;;;;;;;;;;;;21.06;54.72;102142.53;7407269;19;1729;-43
2022/11/27 02:21:21;;;;;;;;;;;;;;;21.03;54.78;102137.41;7407676;19;1685;-43
2022/11/27 02:24:06;;;;;;;;;;;;;;;21.13;54.78;102132.19;7406809;19;1520;-44
2022/11/27 02:26:49;;;;;;;;;;;;;;;21.22;54.44;102130.63;7404064;19;1682;-43
2022/11/27 02:29:21;;;;;;;;;;;;;;;21.22;54.62;102144.06;7406023;19;1720;-43
2022/11/27 02:31:53;;;;;;;;;;;;;;;21.22;54.47;102141.38;7404142;19;2092;-43
2022/11/27 02:34:26;;;;;;;;;;;;;;;21.25;54.68;102143.84;7407258;19;1478;-43
2022/11/27 02:37:00;;;;;;;;;;;;;;;21.26;54.70;102132.09;7407101;19;1845;-43
2022/11/27 02:39:31;;;;;;;;;;;;;;;21.08;55.19;102136.19;7407458;19;1555;-43
2022/11/27 02:42:03;;;;;;;;;;;;;;;21.02;55.07;102135.66;7407251;19;1326;-42
2022/11/27 02:44:36;;;;;;;;;;;;;;;20.94;55.35;102127.31;7406780;19;1814;-43
2022/11/27 02:47:05;;;;;;;;;;;;;;;20.98;55.42;102144.94;7407121;19;1402;-43
2022/11/27 02:49:35;;;;;;;;;;;;;;;20.96;55.51;102130.75;7407766;19;1020;-43
2022/11/27 02:52:04;;;;;;;;;;;;;;;20.91;55.46;102130.25;7405718;19;1650;-43
2022/11/27 02:54:32;;;;;;;;;;;;;;;20.92;55.33;102129.25;7406572;19;1646;-43
2022/11/27 02:57:03;;;;;;;;;;;;;;;20.93;55.46;102131.00;7405809;19;1539;-43
2022/11/27 02:59:35;;;;;;;;;;;;;;;20.93;55.42;102135.50;7406312;19;1001;-43
2022/11/27 03:02:07;;;;;;;;;;;;;;;21.03;55.27;102139.22;7397276;19;1890;-63
2022/11/27 03:04:38;;;;;;;;;;;;;;;20.84;55.74;102142.44;7408126;19;1537;-64
2022/11/27 03:07:10;;;;;;;;;;;;;;;20.89;55.53;102140.28;7409840;19;1632;-63
2022/11/27 03:09:41;;;;;;;;;;;;;;;20.93;55.39;102140.88;7409972;19;1403;-63
2022/11/27 03:12:11;;;;;;;;;;;;;;;20.88;55.70;102133.16;7410452;19;966;-63
2022/11/27 03:14:43;;;;;;;;;;;;;;;20.97;55.58;102135.16;7408753;19;1404;-63
2022/11/27 03:17:18;;;;;;;;;;;;;;;20.90;55.89;102133.91;7409503;19;1500;-66
2022/11/27 03:19:51;;;;;;;;;;;;;;;20.93;55.98;102147.13;7407880;19;1547;-66
2022/11/27 03:22:19;;;;;;;;;;;;;;;21.06;55.68;102145.22;7407157;19;1539;-66
2022/11/27 03:24:48;;;;;;;;;;;;;;;21.11;55.34;102149.38;7405839;19;1453;-66
2022/11/27 03:27:19;;;;;;;;;;;;;;;20.95;55.72;102147.88;7409470;19;1430;-66
2022/11/27 03:29:53;;;;;;;;;;;;;;;21.03;55.52;102137.41;7409214;19;1327;-66
2022/11/27 03:32:22;;;;;;;;;;;;;;;20.90;55.70;102139.28;7409334;19;1461;-66
2022/11/27 03:34:50;;;;;;;;;;;;;;;20.95;55.77;102144.31;7407938;19;1522;-66
2022/11/27 03:37:19;;;;;;;;;;;;;;;21.09;55.22;102145.97;7406937;19;1664;-66
2022/11/27 03:39:47;;;;;;;;;;;;;;;20.89;55.95;102151.03;7406969;19;1328;-66
2022/11/27 03:42:20;;;;;;;;;;;;;;;21.00;55.48;102159.13;7409070;19;1418;-66
2022/11/27 03:44:56;;;;;;;;;;;;;;;20.99;55.35;102151.16;7405360;19;1356;-66
2022/11/27 03:47:32;;;;;;;;;;;;;;;20.94;55.82;102158.75;7406708;19;1667;-65
2022/11/27 03:50:07;;;;;;;;;;;;;;;21.13;55.54;102151.00;7408403;19;1842;-66
2022/11/27 03:52:38;;;;;;;;;;;;;;;20.88;55.85;102151.13;7406335;19;1589;-66
2022/11/27 03:55:09;;;;;;;;;;;;;;;20.86;55.90;102153.94;7407041;19;1422;-66
2022/11/27 03:57:42;;;;;;;;;;;;;;;21.08;55.63;102160.41;7406599;19;1779;-66
2022/11/27 04:00:14;;;;;;;;;;;;;;;20.91;55.86;102143.69;7406398;19;1508;-66
2022/11/27 04:02:44;;;;;;;;;;;;;;;20.82;56.16;102169.41;7404857;19;1495;-66
2022/11/27 04:05:12;;;;;;;;;;;;;;;20.91;56.05;102173.28;7408564;19;1555;-66
2022/11/27 04:07:41;;;;;;;;;;;;;;;20.74;56.37;102174.50;7406146;19;1565;-66
2022/11/27 04:10:10;;;;;;;;;;;;;;;20.78;56.29;102180.53;7406148;19;1852;-66
2022/11/27 04:12:39;;;;;;;;;;;;;;;20.75;56.95;102161.91;7406294;19;1388;-66
2022/11/27 04:15:08;;;;;;;;;;;;;;;20.74;56.72;102161.06;7406218;19;1514;-66
2022/11/27 04:17:39;;;;;;;;;;;;;;;20.54;57.68;102159.81;7407802;19;1464;-66
2022/11/27 04:20:09;;;;;;;;;;;;;;;20.09;58.73;102178.25;7407464;19;1362;-66
2022/11/27 04:22:38;;;;;;;;;;;;;;;19.72;58.33;102174.63;7405555;19;1459;-66
2022/11/27 04:25:06;;;;;;;;;;;;;;;19.59;58.97;102164.66;7403988;19;1450;-66
2022/11/27 04:27:35;;;;;;;;;;;;;;;19.53;59.51;102177.66;7405551;19;1374;-66
2022/11/27 04:30:03;;;;;;;;;;;;;;;19.32;60.37;102162.06;7405087;19;1639;-66
2022/11/27 04:32:31;;;;;;;;;;;;;;;19.65;60.03;102168.75;7405603;19;1834;-66
2022/11/27 04:35:02;;;;;;;;;;;;;;;19.95;59.12;102164.94;7405984;19;1573;-65
2022/11/27 04:37:30;;;;;;;;;;;;;;;20.55;58.19;102153.47;7405395;19;1750;-66
2022/11/27 04:39:59;;;;;;;;;;;;;;;20.79;57.30;102161.59;7405704;19;1540;-66
2022/11/27 04:42:27;;;;;;;;;;;;;;;21.23;56.59;102170.84;7404844;19;1442;-66
2022/11/27 04:44:55;;;;;;;;;;;;;;;21.36;56.12;102160.00;7405693;19;1426;-66
2022/11/27 04:47:23;;;;;;;;;;;;;;;21.42;56.18;102164.06;7406117;19;1639;-66
2022/11/27 04:49:52;;;;;;;;;;;;;;;21.41;56.29;102160.53;7406814;19;1071;-66
2022/11/27 04:52:23;;;;;;;;;;;;;;;20.93;57.67;102165.97;7402758;19;1867;-65
2022/11/27 04:54:51;;;;;;;;;;;;;;;20.66;58.58;102164.31;7405289;19;1340;-66
2022/11/27 04:57:19;;;;;;;;;;;;;;;20.77;58.19;102159.97;7405238;19;1778;-66
2022/11/27 04:59:48;;;;;;;;;;;;;;;21.03;57.41;102153.53;7405998;19;1600;-66
2022/11/27 05:02:16;;;;;;;;;;;;;;;20.75;58.35;102160.13;7405354;19;1507;-66
2022/11/27 05:04:44;;;;;;;;;;;;;;;20.57;58.64;102153.34;7406971;19;1067;-66
2022/11/27 05:07:12;;;;;;;;;;;;;;;20.93;57.76;102151.63;7403773;19;1740;-65
2022/11/27 05:09:43;;;;;;;;;;;;;;;20.78;58.33;102162.56;7404147;19;1467;-66
2022/11/27 05:12:12;;;;;;;;;;;;;;;20.57;58.72;102162.28;7404208;19;1861;-66
2022/11/27 05:14:40;;;;;;;;;;;;;;;21.12;57.22;102157.34;7404921;19;1419;-66
2022/11/27 05:17:08;;;;;;;;;;;;;;;20.86;58.21;102168.22;7405558;19;1902;-66
2022/11/27 05:19:36;;;;;;;;;;;;;;;20.82;58.40;102150.59;7406793;19;987;-66
2022/11/27 05:22:05;;;;;;;;;;;;;;;20.91;58.06;102164.31;7402722;19;1750;-66
2022/11/27 05:24:33;;;;;;;;;;;;;;;20.71;58.97;102155.06;7403798;19;1391;-66
2022/11/27 05:27:04;;;;;;;;;;;;;;;20.87;58.43;102158.34;7405023;19;1351;-66
2022/11/27 05:29:33;;;;;;;;;;;;;;;21.07;58.04;102156.84;7405006;19;1568;-66
2022/11/27 05:32:01;;;;;;;;;;;;;;;20.78;58.58;102156.31;7404972;19;1852;-66
2022/11/27 05:34:29;;;;;;;;;;;;;;;20.88;58.41;102156.50;7404291;19;1459;-66
2022/11/27 05:36:58;;;;;;;;;;;;;;;20.96;58.02;102163.03;7404452;19;1402;-67
2022/11/27 05:39:26;;;;;;;;;;;;;;;20.56;59.90;102155.19;7404693;19;1366;-66
2022/11/27 05:41:54;;;;;;;;;;;;;;;20.04;60.35;102159.78;7401636;19;1635;-66
2022/11/27 05:44:25;;;;;;;;;;;;;;;19.72;61.46;102164.72;7401773;19;1493;-66
2022/11/27 05:46:54;;;;;;;;;;;;;;;19.55;62.04;102178.41;7404979;19;1415;-66
2022/11/27 05:49:22;;;;;;;;;;;;;;;19.46;62.33;102179.91;7405280;19;1000;-66
2022/11/27 05:51:50;;;;;;;;;;;;;;;19.45;62.28;102173.66;7400715;19;1835;-66
2022/11/27 05:54:19;;;;;;;;;;;;;;;19.30;62.61;102177.41;7403819;19;1572;-66
2022/11/27 05:56:47;;;;;;;;;;;;;;;19.30;62.23;102185.44;7403942;19;1571;-66
2022/11/27 05:59:15;;;;;;;;;;;;;;;19.16;62.71;102177.44;7405018;19;1399;-66
2022/11/27 06:01:48;;;;;;;;;;;;;;;19.03;63.87;102185.44;7402784;19;1626;-66
2022/11/27 06:04:16;;;;;;;;;;;;;;;19.01;63.58;102182.88;7403313;19;1757;-66
2022/11/27 06:06:44;;;;;;;;;;;;;;;18.97;63.39;102189.38;7404999;19;1513;-66
2022/11/27 06:09:12;;;;;;;;;;;;;;;18.99;63.67;102190.16;7403801;19;1611;-72
2022/11/27 06:11:41;;;;;;;;;;;;;;;18.93;63.70;102187.88;7302273;19;17685;-59
2022/11/27 06:14:09;;;;;;;;;;;;;;;18.90;64.36;102197.94;7402769;19;1534;-66
2022/11/27 06:16:38;;;;;;;;;;;;;;;18.89;64.24;102181.00;7404998;19;989;-66
2022/11/27 06:19:09;;;;;;;;;;;;;;;18.86;64.57;102183.84;7403891;19;1720;-66
2022/11/27 06:21:38;;;;;;;;;;;;;;;18.88;64.67;102187.34;7399325;19;1626;-65
2022/11/27 06:24:06;;;;;;;;;;;;;;;19.52;62.99;102194.72;7401525;19;1616;-66
2022/11/27 06:26:35;;;;;;;;;;;;;;;20.12;61.25;102199.53;7402516;19;1438;-65
2022/11/27 06:29:03;;;;;;;;;;;;;;;20.59;59.91;102189.94;7403447;19;1437;-67
2022/11/27 06:31:32;;;;;;;;;;;;;;;20.69;59.73;102173.13;7401620;19;1864;-62
2022/11/27 06:34:01;;;;;;;;;;;;;;;20.90;59.23;102192.22;7401787;19;1616;-61
2022/11/27 06:36:33;;;;;;;;;;;;;;;20.98;59.54;102187.13;7402360;19;1416;-62
2022/11/27 06:39:01;;;;;;;;;;;;;;;20.79;59.90;102192.97;7403125;19;1361;-62
2022/11/27 06:41:30;;;;;;;;;;;;;;;20.02;61.08;102198.47;7403268;19;1549;-62
2022/11/27 06:44:00;;;;;;;;;;;;;;;19.56;61.96;102207.84;7403358;19;1435;-62
2022/11/27 06:46:29;;;;;;;;;;;;;;;19.38;63.26;102209.94;7402027;19;1453;-64
2022/11/27 06:48:57;;;;;;;;;;;;;;;19.30;63.06;102206.91;7403482;19;1727;-64
2022/11/27 06:51:27;;;;;;;;;;;;;;;19.16;64.34;102194.41;7398893;19;1845;-64
2022/11/27 06:53:58;;;;;;;;;;;;;;;19.10;64.22;102200.19;7406543;19;1235;-63
2022/11/27 06:56:27;;;;;;;;;;;;;;;19.07;64.41;102189.66;7409198;19;1272;-65
2022/11/27 06:58:56;;;;;;;;;;;;;;;19.02;64.53;102200.69;7410719;19;1485;-64
2022/11/27 07:01:26;;;;;;;;;;;;;;;18.97;64.43;102189.38;7404048;19;1585;-63
2022/11/27 07:03:54;;;;;;;;;;;;;;;18.92;64.17;102188.84;7407953;19;1447;-64
2022/11/27 07:06:23;;;;;;;;;;;;;;;18.87;64.81;102204.34;7409103;19;1589;-62
2022/11/27 07:08:52;;;;;;;;;;;;;;;18.80;65.25;102181.59;7403360;19;1552;-64
2022/11/27 07:11:25;;;;;;;;;;;;;;;18.84;65.10;102183.97;7407873;19;1853;-68
2022/11/27 07:13:55;;;;;;;;;;;;;;;18.83;65.03;102189.44;7405388;19;1467;-66
2022/11/27 07:16:24;;;;;;;;;;;;;;;18.81;65.51;102188.69;7408475;19;1487;-68
2022/11/27 07:18:53;;;;;;;;;;;;;;;18.76;65.59;102180.91;7409278;19;1604;-69
2022/11/27 07:21:22;;;;;;;;;;;;;;;18.77;65.99;102181.78;7403473;19;1630;-68
2022/11/27 07:23:51;;;;;;;;;;;;;;;18.78;65.61;102178.13;7408100;19;1493;-64
2022/11/27 07:26:20;;;;;;;;;;;;;;;18.74;65.99;102176.59;7409243;19;950;-62
2022/11/27 07:28:51;;;;;;;;;;;;;;;18.69;65.82;102180.44;7410068;19;1506;-64
2022/11/27 07:31:20;;;;;;;;;;;;;;;18.62;66.09;102197.88;7407053;19;1852;-65
2022/11/27 07:33:51;;;;;;;;;;;;;;;18.62;67.20;102194.31;7409357;19;1546;-64
2022/11/27 07:36:20;;;;;;;;;;;;;;;18.75;68.34;102189.91;7407690;19;1434;-64
2022/11/27 07:38:49;;;;;;;;;;;;;;;18.90;68.55;102198.81;7409265;19;1537;-65
2022/11/27 07:41:18;;;;;;;;;;;;;;;18.80;68.89;102186.94;7409251;19;1470;-65
2022/11/27 07:43:46;;;;;;;;;;;;;;;18.76;67.83;102193.44;7408905;19;1676;-65
2022/11/27 07:46:19;;;;;;;;;;;;;;;18.65;68.25;102194.13;7407877;19;1491;-66
2022/11/27 07:48:47;;;;;;;;;;;;;;;18.57;68.91;102181.22;7407735;19;1673;-62
2022/11/27 07:51:16;;;;;;;;;;;;;;;18.60;68.74;102207.84;7407815;19;1279;-68
2022/11/27 07:53:45;;;;;;;;;;;;;;;19.43;65.88;102210.47;7409847;19;1010;-66
2022/11/27 07:56:14;;;;;;;;;;;;;;;20.36;63.29;102204.13;7408395;19;1489;-64
2022/11/27 07:58:43;;;;;;;;;;;;;;;20.97;61.71;102197.03;7407996;19;1751;-66
2022/11/27 08:01:12;;;;;;;;;;;;;;;20.91;60.25;102191.22;7403288;19;1802;-63
2022/11/27 08:03:43;;;;;;;;;;;;;;;20.78;60.22;102186.75;7407517;19;1709;-61
2022/11/27 08:06:15;;;;;;;;;;;;;;;20.92;60.07;102192.94;7404499;19;1425;-66
2022/11/27 08:08:43;;;;;;;;;;;;;;;21.15;59.46;102193.91;7406639;19;1275;-66
2022/11/27 08:11:22;;;;;;;;;;;;;;;20.94;59.69;102191.00;7405396;19;1829;-66
2022/11/27 08:13:51;;;;;;;;;;;;;;;20.61;59.99;102193.38;7407445;19;1676;-67
2022/11/27 08:16:19;;;;;;;;;;;;;;;20.62;60.18;102188.84;7406808;19;1683;-66
2022/11/27 08:18:50;;;;;;;;;;;;;;;20.71;60.25;102198.06;7406375;19;1444;-64
2022/11/27 08:21:18;;;;;;;;;;;;;;;20.68;61.00;102201.00;7405296;19;1414;-65
2022/11/27 08:23:46;;;;;;;;;;;;;;;20.81;60.30;102197.28;7406088;19;1537;-63
2022/11/27 08:26:15;;;;;;;;;;;;;;;20.77;60.66;102189.53;7405506;19;1462;-65
2022/11/27 08:28:43;;;;;;;;;;;;;;;20.70;60.86;102199.06;7405182;19;1683;-66
2022/11/27 08:31:13;;;;;;;;;;;;;;;20.71;61.02;102200.75;7405971;19;1573;-62
2022/11/27 08:33:41;;;;;;;;;;;;;;;20.73;61.61;102225.69;7403311;19;1865;-64
2022/11/27 08:36:13;;;;;;;;;;;;;;;20.56;61.95;102206.25;7407059;19;1545;-64
2022/11/27 08:38:41;;;;;;;;;;;;;;;20.59;62.28;102216.81;7406329;19;1470;-65
2022/11/27 08:41:10;;;;;;;;;;;;;;;20.60;61.87;102210.47;7405510;19;1802;-67
2022/11/27 08:43:38;;;;;;;;;;;;;;;20.63;61.95;102218.31;7405367;19;1825;-64
2022/11/27 08:46:07;;;;;;;;;;;;;;;20.74;62.29;102219.34;7406201;19;1783;-65
2022/11/27 08:48:36;;;;;;;;;;;;;;;20.80;61.64;102200.94;7406592;19;1529;-66
2022/11/27 08:51:07;;;;;;;;;;;;;;;20.86;62.30;102207.69;7405690;19;1478;-72
2022/11/27 08:53:38;;;;;;;;;;;;;;;20.88;62.51;102211.13;7404454;19;1853;-67
2022/11/27 08:56:07;;;;;;;;;;;;;;;20.94;62.82;102223.28;7404073;19;1714;-65
2022/11/27 08:58:35;;;;;;;;;;;;;;;20.90;62.50;102200.28;7405465;19;1715;-70
2022/11/27 09:01:08;;;;;;;;;;;;;;;20.91;63.14;102207.34;7401459;19;1476;-68
2022/11/27 09:03:36;;;;;;;;;;;;;;;20.75;62.27;102207.63;7395775;19;1374;-66
2022/11/27 09:06:07;;;;;;;;;;;;;;;20.76;62.59;102209.34;7403177;19;1676;-65
2022/11/27 09:08:38;;;;;;;;;;;;;;;20.85;62.07;102203.31;7406096;19;1546;-64
2022/11/27 09:11:07;;;;;;;;;;;;;;;20.84;62.56;102198.88;7403827;19;1399;-71
2022/11/27 09:13:36;;;;;;;;;;;;;;;20.83;62.62;102189.09;7405993;19;1864;-66
2022/11/27 09:16:04;;;;;;;;;;;;;;;20.43;64.58;102202.72;7403514;19;1469;-63
2022/11/27 09:18:33;;;;;;;;;;;;;;;19.88;65.81;102207.47;7404324;19;1492;-65
2022/11/27 09:21:04;;;;;;;;;;;;;;;19.53;67.17;102212.53;7404659;19;1331;-66
2022/11/27 09:23:32;;;;;;;;;;;;;;;19.30;66.95;102196.19;7404801;19;1537;-65
2022/11/27 09:26:04;;;;;;;;;;;;;;;19.16;67.48;102182.81;7404998;19;1137;-66
2022/11/27 09:28:33;;;;;;;;;;;;;;;19.02;67.05;102189.97;7405446;19;1299;-67
2022/11/27 09:31:02;;;;;;;;;;;;;;;19.04;67.60;102196.09;7403271;19;1327;-68
2022/11/27 09:33:32;;;;;;;;;;;;;;;19.01;67.51;102174.81;7402984;19;1861;-66
2022/11/27 09:36:00;;;;;;;;;;;;;;;18.96;67.95;102176.97;7405379;19;1323;-69
2022/11/27 09:38:29;;;;;;;;;;;;;;;18.91;68.22;102175.53;7406010;19;1687;-68
2022/11/27 09:41:01;;;;;;;;;;;;;;;18.91;68.34;102162.13;7404943;19;1617;-66
2022/11/27 09:43:35;;;;;;;;;;;;;;;18.88;67.45;102179.28;7403956;19;1617;-67
2022/11/27 09:46:07;;;;;;;;;;;;;;;18.79;68.30;102163.78;7402035;19;1797;-68
2022/11/27 09:48:39;;;;;;;;;;;;;;;18.80;69.24;102176.22;7403880;19;1546;-63
2022/11/27 09:51:10;;;;;;;;;;;;;;;18.38;69.04;102106.56;7403169;19;1217;-65
2022/11/27 09:53:45;;;;;;;;;;;;;;;18.77;70.21;102168.38;7404110;19;1860;-64
2022/11/27 09:56:15;;;;;;;;;;;;;;;19.54;67.67;102172.19;7405010;19;1467;-60
2022/11/27 09:58:49;;;;;;;;;;;;;;;20.25;65.84;102176.22;7403104;19;1746;-63
2022/11/27 10:01:18;;;;;;;;;;;;;;;20.54;64.64;102167.88;7402704;19;1784;-77
2022/11/27 10:03:47;;;;;;;;;;;;;;;20.17;65.91;102158.91;7402797;19;1624;-72
2022/11/27 10:06:22;;;;;;;;;;;;;;;20.38;65.79;102161.91;7404620;19;1424;-71
2022/11/27 10:08:55;;;;;;;;;;;;;;;20.22;65.96;102157.63;7402252;19;1472;-67
2022/11/27 10:11:30;;;;;;;;;;;;;;;20.19;66.20;102149.78;7405997;19;1013;-68
2022/11/27 10:14:12;;;;;;;;;;;;;;;19.82;67.44;102159.59;7403144;19;1870;-71
2022/11/27 10:16:44;;;;;;;;;;;;;;;19.37;68.73;102159.91;7402909;19;1099;-69
2022/11/27 10:19:19;;;;;;;;;;;;;;;19.15;69.57;102154.28;7403612;19;1547;-65
2022/11/27 10:21:50;;;;;;;;;;;;;;;19.01;69.69;102152.53;7400955;19;1384;-65
2022/11/27 10:24:23;;;;;;;;;;;;;;;18.87;69.39;102146.25;7401604;19;1534;-65
2022/11/27 10:26:52;;;;;;;;;;;;;;;18.86;69.48;102140.97;7403158;19;1466;-66
2022/11/27 10:29:32;;;;;;;;;;;;;;;18.82;70.20;102151.06;7411778;19;1426;-66
2022/11/27 10:32:03;;;;;;;;;;;;;;;18.77;70.50;102142.41;7412071;19;1542;-66
2022/11/27 10:34:36;;;;;;;;;;;;;;;18.80;70.42;102149.44;7406850;19;1865;-63
2022/11/27 10:37:08;;;;;;;;;;;;;;;18.82;70.60;102142.16;7409773;19;1457;-66
2022/11/27 10:39:39;;;;;;;;;;;;;;;18.92;70.08;102143.28;7408102;19;1538;-65
2022/11/27 10:42:11;;;;;;;;;;;;;;;18.85;69.91;102131.22;7409806;19;1374;-70
2022/11/27 10:44:44;;;;;;;;;;;;;;;18.84;70.49;102125.03;7408505;19;1252;-66
2022/11/27 10:47:13;;;;;;;;;;;;;;;18.89;69.52;102138.13;7408677;19;1583;-65
2022/11/27 10:49:42;;;;;;;;;;;;;;;19.03;70.17;102126.47;7410105;19;1166;-66
2022/11/27 10:52:13;;;;;;;;;;;;;;;18.96;70.04;102118.00;7409978;19;1307;-66
2022/11/27 10:54:42;;;;;;;;;;;;;;;18.92;70.29;102135.25;7404913;19;1853;-66
2022/11/27 10:57:16;;;;;;;;;;;;;;;18.82;70.82;102126.94;7408799;19;1347;-67
2022/11/27 10:59:50;;;;;;;;;;;;;;;18.88;70.30;102121.19;7406625;19;1790;-70
2022/11/27 11:02:29;;;;;;;;;;;;;;;18.86;70.58;102112.38;7408241;19;1566;-63
2022/11/27 11:04:58;;;;;;;;;;;;;;;18.87;70.66;102124.81;7410076;19;1458;-63
2022/11/27 11:07:27;;;;;;;;;;;;;;;18.86;71.04;102120.41;7410163;19;1382;-65
2022/11/27 11:09:56;;;;;;;;;;;;;;;18.78;70.76;102100.41;7407857;19;1679;-64
2022/11/27 11:12:26;;;;;;;;;;;;;;;18.77;70.67;102101.38;7407359;19;1856;-64
2022/11/27 11:14:57;;;;;;;;;;;;;;;18.79;71.07;102110.16;7408518;19;1514;-65
2022/11/27 11:17:27;;;;;;;;;;;;;;;18.81;70.54;102101.09;7407443;19;1517;-64
2022/11/27 11:19:56;;;;;;;;;;;;;;;18.84;69.94;102103.59;7409077;19;1633;-61
2022/11/27 11:22:25;;;;;;;;;;;;;;;18.92;70.04;102099.50;7406387;19;1370;-62
2022/11/27 11:24:54;;;;;;;;;;;;;;;18.87;70.41;102095.31;7404238;19;1673;-62
2022/11/27 11:27:25;;;;;;;;;;;;;;;18.91;71.00;102095.13;7408413;19;1375;-61
2022/11/27 11:29:54;;;;;;;;;;;;;;;19.02;70.92;102089.88;7408562;19;1329;-64
2022/11/27 11:32:27;;;;;;;;;;;;;;;18.93;70.73;102094.06;7407975;19;1549;-60
2022/11/27 11:34:56;;;;;;;;;;;;;;;18.84;70.88;102082.13;7403440;19;1877;-61
2022/11/27 11:37:26;;;;;;;;;;;;;;;18.81;70.44;102084.16;7407713;19;1675;-62
2022/11/27 11:39:56;;;;;;;;;;;;;;;18.81;71.26;102076.13;7406058;19;1721;-62
2022/11/27 11:42:26;;;;;;;;;;;;;;;18.85;71.15;102064.22;7405865;19;1296;-62
2022/11/27 11:44:56;;;;;;;;;;;;;;;18.81;71.21;102076.13;7407306;19;1331;-63
2022/11/27 11:47:26;;;;;;;;;;;;;;;18.82;71.55;102062.63;7405955;19;1212;-62
2022/11/27 11:49:56;;;;;;;;;;;;;;;18.78;71.35;102076.28;7408327;19;1621;-62
2022/11/27 11:52:34;;;;;;;;;;;;;;;18.77;71.79;102064.72;7406490;19;1651;-60
2022/11/27 11:55:05;;;;;;;;;;;;;;;18.74;71.59;102069.41;7405061;19;1900;-62
2022/11/27 11:57:42;;;;;;;;;;;;;;;18.74;71.61;102089.03;7408165;19;1465;-60
2022/11/27 12:00:12;;;;;;;;;;;;;;;18.61;72.08;102054.16;7405731;19;1521;-60
2022/11/27 12:02:55;;;;;;;;;;;;;;;18.58;71.97;102062.41;7405338;19;1390;-60
2022/11/27 12:05:30;;;;;;;;;;;;;;;18.58;71.93;102065.09;7405734;19;1395;-60
2022/11/27 12:08:06;;;;;;;;;;;;;;;18.69;71.52;102067.03;7398797;19;1484;-61
2022/11/27 12:10:39;;;;;;;;;;;;;;;18.69;71.82;102069.72;7406209;19;1351;-61
2022/11/27 12:13:15;;;;;;;;;;;;;;;18.63;71.50;102056.72;7404457;19;1853;-64
2022/11/27 12:15:46;;;;;;;;;;;;;;;18.68;71.33;102057.28;7403318;19;1492;-60
2022/11/27 12:18:23;;;;;;;;;;;;;;;18.77;70.84;102061.19;7405124;19;1162;-59
2022/11/27 12:20:57;;;;;;;;;;;;;;;18.69;71.48;102046.47;7406689;19;1548;-60
2022/11/27 12:23:34;;;;;;;;;;;;;;;18.69;71.25;102053.66;7405167;19;1459;-60
2022/11/27 12:26:08;;;;;;;;;;;;;;;18.72;71.22;102041.84;7405329;19;1743;-60
2022/11/27 12:28:43;;;;;;;;;;;;;;;18.67;71.21;102048.38;7406045;19;1308;-59
2022/11/27 12:31:19;;;;;;;;;;;;;;;18.72;70.89;102045.41;7404667;19;1313;-60
2022/11/27 12:33:56;;;;;;;;;;;;;;;18.76;70.82;102046.03;7404150;19;1865;-62
2022/11/27 12:36:32;;;;;;;;;;;;;;;19.54;68.22;102027.31;7404046;19;1766;-60
2022/11/27 12:39:12;;;;;;;;;;;;;;;20.40;65.37;102026.47;7404492;19;1225;-60
2022/11/27 12:45:03;;;;;;;;;;;;;;;21.05;63.74;102027.88;7403103;19;2090;-60
2022/11/27 12:48:04;;;;;;;;;;;;;;;20.99;63.86;102025.66;7402719;19;2044;-61
2022/11/27 12:51:03;;;;;;;;;;;;;;;20.93;64.03;102019.88;7401941;19;1688;-62
2022/11/27 12:53:59;;;;;;;;;;;;;;;20.15;66.52;102022.03;7400446;19;1859;-63
2022/11/27 12:56:47;;;;;;;;;;;;;;;19.59;67.72;102035.03;7403468;19;1391;-63
2022/11/27 13:14:24;;;;;;;;;;;;;;;20.52;65.65;102021.16;7434742;19;1397;-41
2022/11/27 13:17:04;;;;;;;;;;;;;;;20.45;65.83;102020.75;7437671;19;1410;-41
2022/11/27 13:19:39;;;;;;;;;;;;;;;20.68;65.05;102028.97;7437753;19;1350;-41
2022/11/27 13:22:13;;;;;;;;;;;;;;;20.81;64.77;102035.09;7434333;19;1443;-42
2022/11/27 13:24:49;;;;;;;;;;;;;;;20.76;64.93;102013.97;7430870;19;1755;-43